createdAt,value
2018-05-01T08:36:06.394Z,180
2018-05-01T08:37:06.960Z,192
2018-05-01T08:38:07.529Z,208
2018-05-01T08:39:08.099Z,216
2018-05-01T08:40:08.669Z,224
2018-05-01T08:41:09.238Z,260
2018-05-01T08:42:09.808Z,292
2018-05-01T08:43:10.378Z,356
2018-05-01T08:44:10.946Z,412
2018-05-01T08:45:11.538Z,484
2018-05-01T08:46:12.093Z,528
2018-05-01T08:47:12.664Z,572
2018-05-01T08:48:13.230Z,468
2018-05-01T08:49:13.799Z,508
2018-05-01T08:50:14.368Z,524
2018-05-01T08:51:14.940Z,500
2018-05-01T08:52:15.508Z,452
2018-05-01T08:53:16.077Z,416
2018-05-01T08:54:16.646Z,380
2018-05-01T08:55:17.215Z,320
2018-05-01T08:56:17.784Z,324
2018-05-01T08:57:18.390Z,288
2018-05-01T08:58:18.923Z,268
2018-05-01T08:59:19.491Z,284
2018-05-01T09:00:20.061Z,292
2018-05-01T09:01:20.634Z,308
2018-05-01T09:02:21.198Z,328
2018-05-01T09:03:21.768Z,360
2018-05-01T09:04:22.348Z,352
2018-05-01T09:05:22.916Z,356
2018-05-01T09:06:23.484Z,372
2018-05-01T09:07:24.064Z,332
2018-05-01T09:08:24.634Z,308
2018-05-01T09:09:25.205Z,340
2018-05-01T09:10:25.782Z,384
2018-05-01T09:11:26.352Z,388
2018-05-01T09:12:26.922Z,396
2018-05-01T09:13:27.491Z,424
2018-05-01T09:14:28.065Z,400
2018-05-01T09:15:28.643Z,436
2018-05-01T09:16:29.213Z,472
2018-05-01T09:17:29.784Z,512
2018-05-01T09:18:30.424Z,544
2018-05-01T09:19:30.922Z,556
2018-05-01T09:20:31.491Z,568
2018-05-01T09:21:32.060Z,580
2018-05-01T09:22:32.629Z,604
2018-05-01T09:23:33.198Z,624
2018-05-01T09:24:33.779Z,620
2018-05-01T09:25:34.348Z,608
2018-05-01T09:26:34.925Z,604
2018-05-01T09:27:35.500Z,572
2018-05-01T09:28:36.064Z,536
2018-05-01T09:29:36.633Z,552
2018-05-01T09:30:37.201Z,600
2018-05-01T09:31:37.772Z,640
2018-05-01T09:32:38.343Z,648
2018-05-01T09:33:38.911Z,672
2018-05-01T09:34:39.481Z,668
2018-05-01T09:35:40.056Z,684
2018-05-01T09:36:40.618Z,716
2018-05-01T09:37:41.186Z,712
2018-05-01T09:38:41.756Z,736
2018-05-01T09:39:42.327Z,772
2018-05-01T09:40:42.908Z,796
2018-05-01T09:41:43.529Z,788
2018-05-01T09:42:44.047Z,824
2018-05-01T09:43:44.616Z,832
2018-05-01T09:44:45.186Z,836
2018-05-01T09:45:45.755Z,820
2018-05-01T09:46:46.324Z,796
2018-05-01T09:47:46.893Z,816
2018-05-01T09:48:47.464Z,788
2018-05-01T09:49:48.035Z,776
2018-05-01T09:50:48.614Z,776
2018-05-01T09:51:49.187Z,788
2018-05-01T09:52:49.766Z,812
2018-05-01T09:53:50.335Z,804
2018-05-01T09:54:50.915Z,824
2018-05-01T09:55:51.486Z,820
2018-05-01T09:56:52.056Z,820
2018-05-01T09:57:52.651Z,848
2018-05-01T09:58:53.220Z,864
2018-05-01T09:59:53.828Z,780
2018-05-01T10:00:54.361Z,796
2018-05-01T10:01:54.930Z,796
2018-05-01T10:02:55.501Z,736
2018-05-01T10:03:56.071Z,728
2018-05-01T10:04:56.644Z,812
2018-05-01T10:05:57.213Z,792
2018-05-01T10:06:57.785Z,852
2018-05-01T10:07:58.357Z,1004
2018-05-01T10:08:58.940Z,896
2018-05-01T10:09:59.512Z,872
2018-05-01T10:11:00.079Z,920
2018-05-01T10:12:00.647Z,984
2018-05-01T10:13:01.218Z,1004
2018-05-01T10:14:01.791Z,1024
2018-05-01T10:15:02.366Z,1068
2018-05-01T10:16:02.937Z,852
2018-05-01T10:17:03.518Z,928
2018-05-01T10:18:04.090Z,912
2018-05-01T10:19:04.659Z,888
2018-05-01T10:20:05.238Z,968
2018-05-01T10:21:05.813Z,1000
2018-05-01T10:22:06.386Z,1012
2018-05-01T10:23:06.965Z,968
2018-05-01T10:24:07.547Z,908
2018-05-01T10:25:08.122Z,884
2018-05-01T10:26:08.693Z,868
2018-05-01T10:27:09.266Z,844
2018-05-01T10:28:09.849Z,816
2018-05-01T10:29:10.415Z,812
2018-05-01T10:30:10.986Z,812
2018-05-01T10:31:11.557Z,808
2018-05-01T10:32:12.127Z,820
2018-05-01T10:33:12.700Z,824
2018-05-01T10:34:13.271Z,812
2018-05-01T10:35:13.853Z,808
2018-05-01T10:36:14.435Z,816
2018-05-01T10:37:15.006Z,832
2018-05-01T10:38:15.578Z,908
2018-05-01T10:39:16.151Z,948
2018-05-01T10:40:16.721Z,816
2018-05-01T10:41:17.295Z,1020
2018-05-01T10:42:17.869Z,1012
2018-05-01T10:43:18.440Z,888
2018-05-01T10:44:19.017Z,1032
2018-05-01T10:45:19.597Z,1080
2018-05-01T10:46:20.168Z,952
2018-05-01T10:47:20.741Z,1168
2018-05-01T10:48:21.324Z,1096
2018-05-01T10:49:21.993Z,1168
2018-05-01T10:50:22.480Z,1080
2018-05-01T10:51:23.056Z,1208
2018-05-01T10:52:23.628Z,1080
2018-05-01T10:53:24.208Z,1024
2018-05-01T10:54:24.776Z,1016
2018-05-01T10:55:25.352Z,1076
2018-05-01T10:56:25.920Z,940
2018-05-01T10:57:26.492Z,940
2018-05-01T10:58:27.074Z,952
2018-05-01T10:59:27.648Z,904
2018-05-01T11:00:28.274Z,908
2018-05-01T11:01:28.793Z,820
2018-05-01T11:02:29.367Z,856
2018-05-01T11:03:29.942Z,848
2018-05-01T11:04:30.511Z,832
2018-05-01T11:05:31.085Z,816
2018-05-01T11:06:31.668Z,832
2018-05-01T11:07:32.240Z,872
2018-05-01T11:08:32.813Z,896
2018-05-01T11:09:33.386Z,916
2018-05-01T11:10:33.959Z,896
2018-05-01T11:11:34.531Z,848
2018-05-01T11:12:35.104Z,832
2018-05-01T11:13:35.679Z,876
2018-05-01T11:14:36.250Z,856
2018-05-01T11:15:36.824Z,876
2018-05-01T11:16:37.395Z,768
2018-05-01T11:17:37.978Z,800
2018-05-01T11:18:38.549Z,892
2018-05-01T11:19:39.133Z,1004
2018-05-01T11:20:39.706Z,976
2018-05-01T11:21:40.277Z,904
2018-05-01T11:22:40.851Z,932
2018-05-01T11:23:41.424Z,1040
2018-05-01T11:24:42.063Z,1160
2018-05-01T11:25:42.571Z,1096
2018-05-01T11:26:43.144Z,968
2018-05-01T11:27:43.720Z,1040
2018-05-01T11:28:44.292Z,1000
2018-05-01T11:29:44.891Z,1088
2018-05-01T11:30:45.443Z,1124
2018-05-01T11:31:46.015Z,892
2018-05-01T11:32:46.587Z,864
2018-05-01T11:33:47.161Z,904
2018-05-01T11:34:47.736Z,1144
2018-05-01T11:35:48.311Z,1052
2018-05-01T11:36:48.883Z,824
2018-05-01T11:37:49.456Z,876
2018-05-01T11:38:50.031Z,812
2018-05-01T11:39:50.604Z,816
2018-05-01T11:40:51.177Z,832
2018-05-01T11:41:51.750Z,876
2018-05-01T11:42:52.341Z,1072
2018-05-01T11:43:52.909Z,1052
2018-05-01T11:44:53.522Z,1068
2018-05-01T11:45:54.055Z,1064
2018-05-01T11:46:54.637Z,1100
2018-05-01T11:47:55.216Z,1100
2018-05-01T11:48:55.791Z,1060
2018-05-01T11:49:56.363Z,1000
2018-05-01T11:50:56.942Z,972
2018-05-01T11:51:57.514Z,984
2018-05-01T11:52:58.083Z,996
2018-05-01T11:53:58.658Z,992
2018-05-01T11:54:59.231Z,904
2018-05-01T11:55:59.806Z,880
2018-05-01T11:57:00.381Z,1084
2018-05-01T11:58:00.956Z,1132
2018-05-01T11:59:01.530Z,1088
2018-05-01T12:00:02.107Z,1096
2018-05-01T12:01:02.679Z,880
2018-05-01T12:02:03.254Z,1104
2018-05-01T12:03:03.829Z,1068
2018-05-01T12:04:04.406Z,1056
2018-05-01T12:05:04.980Z,1060
2018-05-01T12:06:05.554Z,1052
2018-05-01T12:07:06.129Z,1088
2018-05-01T12:08:06.704Z,1088
2018-05-01T12:09:07.280Z,1096
2018-05-01T12:10:07.854Z,1080
2018-05-01T12:11:08.430Z,1064
2018-05-01T12:12:09.007Z,1072
2018-05-01T12:13:09.580Z,1088
2018-05-01T12:14:10.157Z,1124
2018-05-01T12:15:10.729Z,1124
2018-05-01T12:16:11.353Z,1128
2018-05-01T12:17:11.885Z,1148
2018-05-01T12:18:12.455Z,1144
2018-05-01T12:19:13.028Z,1072
2018-05-01T12:20:13.605Z,1180
2018-05-01T12:21:14.181Z,1168
2018-05-01T12:22:14.765Z,1164
2018-05-01T12:23:15.340Z,1136
2018-05-01T12:24:15.916Z,1124
2018-05-01T12:25:16.490Z,1124
2018-05-01T12:26:17.065Z,1124
2018-05-01T12:27:17.651Z,1004
2018-05-01T12:28:18.224Z,1028
2018-05-01T12:29:18.798Z,1080
2018-05-01T12:30:19.373Z,1020
2018-05-01T12:31:19.949Z,1044
2018-05-01T12:32:20.525Z,1028
2018-05-01T12:33:21.099Z,1020
2018-05-01T12:34:21.683Z,1040
2018-05-01T12:35:22.271Z,1024
2018-05-01T12:36:22.901Z,1044
2018-05-01T12:37:23.422Z,1032
2018-05-01T12:38:23.997Z,1012
2018-05-01T12:39:24.580Z,976
2018-05-01T12:40:25.148Z,1048
2018-05-01T12:41:25.725Z,1068
2018-05-01T12:42:26.315Z,1044
2018-05-01T12:43:26.883Z,1084
2018-05-01T12:44:27.450Z,1096
2018-05-01T12:45:28.026Z,1116
2018-05-01T12:46:28.600Z,1156
2018-05-01T12:47:29.175Z,1188
2018-05-01T12:48:29.756Z,1212
2018-05-01T12:49:30.324Z,1208
2018-05-01T12:50:30.901Z,1216
2018-05-01T12:51:31.488Z,1196
2018-05-01T12:52:32.063Z,1176
2018-05-01T12:53:32.647Z,1180
2018-05-01T12:54:33.224Z,1160
2018-05-01T12:55:33.811Z,1168
2018-05-01T12:56:34.397Z,1160
2018-05-01T12:57:34.973Z,1140
2018-05-01T12:58:35.560Z,1124
2018-05-01T12:59:36.138Z,1160
2018-05-01T13:00:36.711Z,1172
2018-05-01T13:01:37.286Z,1184
2018-05-01T13:02:37.862Z,1168
2018-05-01T13:03:38.438Z,1152
2018-05-01T13:04:39.012Z,1148
2018-05-01T13:05:39.590Z,1148
2018-05-01T13:06:40.163Z,1140
2018-05-01T13:07:40.749Z,1120
2018-05-01T13:08:41.326Z,1136
2018-05-01T13:09:41.901Z,1160
2018-05-01T13:10:42.476Z,1156
2018-05-01T13:11:43.061Z,1164
2018-05-01T13:12:43.636Z,1172
2018-05-01T13:13:44.222Z,1188
2018-05-01T13:14:44.797Z,1184
2018-05-01T13:15:45.372Z,1184
2018-05-01T13:16:45.948Z,1184
2018-05-01T13:17:46.523Z,1180
2018-05-01T13:18:47.102Z,1144
2018-05-01T13:19:47.685Z,1140
2018-05-01T13:20:48.260Z,1152
2018-05-01T13:21:48.846Z,1132
2018-05-01T13:22:49.422Z,1104
2018-05-01T13:23:49.996Z,1064
2018-05-01T13:24:50.572Z,1024
2018-05-01T13:25:51.146Z,1000
2018-05-01T13:26:51.721Z,992
2018-05-01T13:27:52.296Z,984
2018-05-01T13:28:52.870Z,1004
2018-05-01T13:29:53.445Z,1020
2018-05-01T13:30:54.021Z,1008
2018-05-01T13:31:54.606Z,1004
2018-05-01T13:32:55.182Z,972
2018-05-01T13:33:55.758Z,964
2018-05-01T13:34:56.332Z,960
2018-05-01T13:35:56.905Z,960
2018-05-01T13:36:57.479Z,968
2018-05-01T13:37:58.083Z,988
2018-05-01T13:38:58.628Z,984
2018-05-01T13:39:59.203Z,1004
2018-05-01T13:40:59.777Z,1024
2018-05-01T13:42:00.355Z,1028
2018-05-01T13:43:00.928Z,1036
2018-05-01T13:44:01.503Z,1028
2018-05-01T13:45:02.080Z,1020
2018-05-01T13:46:02.655Z,1024
2018-05-01T13:47:03.237Z,1024
2018-05-01T13:48:03.806Z,1032
2018-05-01T13:49:04.416Z,1032
2018-05-01T13:50:04.957Z,1036
2018-05-01T13:51:05.533Z,1044
2018-05-01T13:52:06.106Z,1048
2018-05-01T13:53:06.684Z,1044
2018-05-01T13:54:07.259Z,1036
2018-05-01T13:55:07.836Z,1016
2018-05-01T13:56:08.421Z,1004
2018-05-01T13:57:09.003Z,1008
2018-05-01T13:58:09.583Z,1000
2018-05-01T13:59:10.169Z,1004
2018-05-01T14:00:10.743Z,1008
2018-05-01T14:01:11.318Z,1004
2018-05-01T14:02:11.892Z,1000
2018-05-01T14:03:12.469Z,1012
2018-05-01T14:04:13.044Z,1020
2018-05-01T14:05:13.617Z,1024
2018-05-01T14:06:14.198Z,1028
2018-05-01T14:07:14.772Z,1032
2018-05-01T14:08:15.346Z,1032
2018-05-01T14:09:15.922Z,1044
2018-05-01T14:10:16.497Z,1056
2018-05-01T14:11:17.074Z,1060
2018-05-01T14:12:17.650Z,1072
2018-05-01T14:13:18.343Z,1084
2018-05-01T14:14:18.803Z,1092
2018-05-01T14:15:19.378Z,1104
2018-05-01T14:16:19.953Z,1108
2018-05-01T14:17:20.530Z,1112
2018-05-01T14:18:21.108Z,1132
2018-05-01T14:19:21.747Z,1100
2018-05-01T14:20:22.267Z,1160
2018-05-01T14:21:22.842Z,1172
2018-05-01T14:22:23.417Z,1196
2018-05-01T14:23:23.995Z,1212
2018-05-01T14:24:24.570Z,1068
2018-05-01T14:25:25.253Z,1104
2018-05-01T14:26:25.727Z,1276
2018-05-01T14:27:26.299Z,1296
2018-05-01T14:28:26.875Z,1296
2018-05-01T14:29:27.452Z,1212
2018-05-01T14:30:28.028Z,1308
2018-05-01T14:31:28.604Z,1312
2018-05-01T14:32:29.180Z,1292
2018-05-01T14:33:29.766Z,1108
2018-05-01T14:34:30.357Z,1100
2018-05-01T14:35:30.926Z,1228
2018-05-01T14:36:31.502Z,1060
2018-05-01T14:37:32.079Z,1092
2018-05-01T14:38:32.655Z,1024
2018-05-01T14:39:33.231Z,1224
2018-05-01T14:40:33.806Z,1092
2018-05-01T14:41:34.383Z,1236
2018-05-01T14:42:34.957Z,1028
2018-05-01T14:43:35.531Z,1300
2018-05-01T14:44:36.122Z,1320
2018-05-01T14:45:36.683Z,1320
2018-05-01T14:46:37.269Z,1288
2018-05-01T14:47:37.845Z,1268
2018-05-01T14:48:38.420Z,1208
2018-05-01T14:49:39.005Z,1140
2018-05-01T14:50:39.581Z,1240
2018-05-01T14:51:40.155Z,1048
2018-05-01T14:52:40.732Z,1168
2018-05-01T14:53:41.309Z,992
2018-05-01T14:54:41.884Z,1260
2018-05-01T14:55:42.458Z,1276
2018-05-01T14:56:43.036Z,1272
2018-05-01T14:57:43.620Z,1252
2018-05-01T14:58:44.196Z,1064
2018-05-01T14:59:44.782Z,1020
2018-05-01T15:00:45.359Z,1100
2018-05-01T15:01:45.959Z,1308
2018-05-01T15:02:46.528Z,1336
2018-05-01T15:03:47.113Z,1276
2018-05-01T15:04:47.690Z,1344
2018-05-01T15:05:48.268Z,1368
2018-05-01T15:06:48.854Z,1424
2018-05-01T15:07:49.429Z,1464
2018-05-01T15:08:50.009Z,1512
2018-05-01T15:09:50.582Z,1536
2018-05-01T15:10:51.160Z,1552
2018-05-01T15:11:51.733Z,1548
2018-05-01T15:12:52.323Z,1668
2018-05-01T15:13:52.894Z,1740
2018-05-01T15:14:53.482Z,1828
2018-05-01T15:15:54.058Z,1912
2018-05-01T15:16:54.635Z,1976
2018-05-01T15:17:55.211Z,2040
2018-05-01T15:18:55.787Z,2160
2018-05-01T15:19:56.364Z,2280
2018-05-01T15:20:56.941Z,2352
2018-05-01T15:21:57.527Z,2340
2018-05-01T15:22:58.101Z,2452
2018-05-01T15:23:58.679Z,2460
2018-05-01T15:24:59.266Z,2364
2018-05-01T15:25:59.843Z,2152
2018-05-01T15:27:00.416Z,2212
2018-05-01T15:28:00.995Z,2284
2018-05-01T15:29:01.570Z,2344
2018-05-01T15:30:02.186Z,2528
2018-05-01T15:31:02.733Z,2632
2018-05-01T15:32:03.308Z,2704
2018-05-01T15:33:03.895Z,2820
2018-05-01T15:34:04.471Z,2796
2018-05-01T15:35:05.060Z,2804
2018-05-01T15:36:05.626Z,2872
2018-05-01T15:37:06.201Z,2916
2018-05-01T15:38:06.781Z,3000
2018-05-01T15:39:07.355Z,3072
2018-05-01T15:40:07.938Z,3172
2018-05-01T15:41:08.517Z,3240
2018-05-01T15:42:09.092Z,3292
2018-05-01T15:43:09.668Z,3260
2018-05-01T15:44:10.244Z,3260
2018-05-01T15:45:10.895Z,3296
2018-05-01T15:46:11.399Z,3352
2018-05-01T15:47:11.974Z,3372
2018-05-01T15:48:12.550Z,3368
2018-05-01T15:49:13.127Z,3368
2018-05-01T15:50:13.711Z,3436
2018-05-01T15:51:14.290Z,3528
2018-05-01T15:52:14.869Z,3548
2018-05-01T15:53:15.447Z,3636
2018-05-01T15:54:16.030Z,3728
2018-05-01T15:55:16.618Z,3840
2018-05-01T15:56:17.196Z,3888
2018-05-01T15:57:17.776Z,3896
2018-05-01T15:58:18.351Z,3836
2018-05-01T15:59:18.928Z,3824
2018-05-01T16:00:19.505Z,3832
2018-05-01T16:01:20.082Z,3848
2018-05-01T16:02:20.660Z,3828
2018-05-01T16:03:21.240Z,3880
2018-05-01T16:04:21.813Z,3912
2018-05-01T16:05:22.392Z,3980
2018-05-01T16:06:22.968Z,4036
2018-05-01T16:07:23.545Z,4092
2018-05-01T16:08:24.125Z,4140
2018-05-01T16:09:24.701Z,4244
2018-05-01T16:10:25.277Z,4324
2018-05-01T16:11:25.858Z,4372
2018-05-01T16:12:26.446Z,4408
2018-05-01T16:13:27.035Z,4380
2018-05-01T16:14:27.611Z,4388
2018-05-01T16:15:28.193Z,4460
2018-05-01T16:16:28.769Z,4488
2018-05-01T16:17:29.346Z,4520
2018-05-01T16:18:29.925Z,4536
2018-05-01T16:19:30.503Z,4520
2018-05-01T16:20:31.091Z,4516
2018-05-01T16:21:31.670Z,4476
2018-05-01T16:22:32.250Z,4460
2018-05-01T16:23:32.828Z,4476
2018-05-01T16:24:33.418Z,4472
2018-05-01T16:25:33.997Z,4440
2018-05-01T16:26:34.576Z,4428
2018-05-01T16:27:35.156Z,4404
2018-05-01T16:28:35.743Z,4380
2018-05-01T16:29:36.331Z,4360
2018-05-01T16:30:36.909Z,4324
2018-05-01T16:31:37.489Z,4292
2018-05-01T16:32:38.065Z,4272
2018-05-01T16:33:38.643Z,4244
2018-05-01T16:34:39.221Z,4252
2018-05-01T16:35:39.797Z,4236
2018-05-01T16:36:40.375Z,4196
2018-05-01T16:37:40.955Z,4044
2018-05-01T16:38:41.533Z,4080
2018-05-01T16:39:42.110Z,4056
2018-05-01T16:40:42.690Z,4052
2018-05-01T16:41:43.268Z,4104
2018-05-01T16:42:43.845Z,4096
2018-05-01T16:43:44.433Z,4172
2018-05-01T16:44:45.012Z,4164
2018-05-01T16:45:45.590Z,4152
2018-05-01T16:46:46.168Z,4188
2018-05-01T16:47:46.746Z,4176
2018-05-01T16:48:47.328Z,4160
2018-05-01T16:49:47.906Z,4076
2018-05-01T16:50:48.484Z,4048
2018-05-01T16:51:49.063Z,4008
2018-05-01T16:52:49.645Z,3956
2018-05-01T16:53:50.221Z,3904
2018-05-01T16:54:50.800Z,3800
2018-05-01T16:55:51.376Z,3724
2018-05-01T16:56:51.997Z,3684
2018-05-01T16:57:52.530Z,3664
2018-05-01T16:58:53.106Z,3680
2018-05-01T16:59:53.685Z,3680
2018-05-01T17:00:54.267Z,3684
2018-05-01T17:01:54.875Z,3680
2018-05-01T17:02:55.429Z,3640
2018-05-01T17:03:56.006Z,3572
2018-05-01T17:04:56.592Z,3452
2018-05-01T17:05:57.168Z,3308
2018-05-01T17:06:57.748Z,3192
2018-05-01T17:07:58.322Z,3048
2018-05-01T17:08:58.900Z,2904
2018-05-01T17:09:59.477Z,2788
2018-05-01T17:11:00.055Z,2700
2018-05-01T17:12:00.633Z,2628
2018-05-01T17:13:01.210Z,2508
2018-05-01T17:14:01.786Z,2392
2018-05-01T17:15:02.365Z,2244
2018-05-01T17:16:02.942Z,2072
2018-05-01T17:17:03.518Z,1904
2018-05-01T17:18:04.106Z,1748
2018-05-01T17:19:04.683Z,1604
2018-05-01T17:20:05.261Z,1496
2018-05-01T17:21:05.840Z,1420
2018-05-01T17:22:06.455Z,1356
2018-05-01T17:23:07.026Z,1300
2018-05-01T17:24:07.602Z,1244
2018-05-01T17:25:08.177Z,1188
2018-05-01T17:26:08.755Z,1128
2018-05-01T17:27:09.331Z,1064
2018-05-01T17:28:09.955Z,996
2018-05-01T17:29:10.510Z,928
2018-05-01T17:30:11.057Z,860
2018-05-01T17:31:11.647Z,808
2018-05-01T17:32:12.224Z,772
2018-05-01T17:33:12.800Z,748
2018-05-01T17:34:13.375Z,728
2018-05-01T17:35:13.950Z,716
2018-05-01T17:36:14.527Z,700
2018-05-01T17:37:15.103Z,672
2018-05-01T17:38:15.676Z,644
2018-05-01T17:39:16.251Z,620
2018-05-01T17:40:16.826Z,608
2018-05-01T17:41:17.401Z,592
2018-05-01T17:42:17.977Z,596
2018-05-01T17:43:18.551Z,600
2018-05-01T17:44:19.127Z,628
2018-05-01T17:45:19.700Z,684
2018-05-01T17:46:20.276Z,808
2018-05-01T17:47:20.855Z,972
2018-05-01T17:48:21.428Z,1104
2018-05-01T17:49:22.004Z,1200
2018-05-01T17:50:22.591Z,1296
2018-05-01T17:51:23.167Z,1332
2018-05-01T17:52:23.743Z,1340
2018-05-01T17:53:24.321Z,1356
2018-05-01T17:54:24.905Z,1408
2018-05-01T17:55:25.481Z,1472
2018-05-01T17:56:26.060Z,1536
2018-05-01T17:57:26.710Z,1540
2018-05-01T17:58:27.213Z,1512
2018-05-01T17:59:27.793Z,1448
2018-05-01T18:00:28.368Z,1396
2018-05-01T18:01:28.945Z,1364
2018-05-01T18:02:29.526Z,1260
2018-05-01T18:03:30.111Z,1076
2018-05-01T18:04:30.686Z,1048
2018-05-01T18:05:31.264Z,1092
2018-05-01T18:06:31.912Z,1028
2018-05-01T18:07:32.428Z,928
2018-05-01T18:08:33.002Z,868
2018-05-01T18:09:33.579Z,860
2018-05-01T18:10:34.155Z,832
2018-05-01T18:11:34.730Z,772
2018-05-01T18:12:35.320Z,680
2018-05-01T18:13:35.883Z,580
2018-05-01T18:14:36.459Z,472
2018-05-01T18:15:37.034Z,384
2018-05-01T18:16:37.609Z,324
2018-05-01T18:17:38.185Z,288
2018-05-01T18:18:38.770Z,260
2018-05-01T18:19:39.345Z,236
2018-05-01T18:20:39.951Z,192
2018-05-01T18:21:40.496Z,160
2018-05-01T18:22:41.071Z,140
2018-05-01T18:23:41.647Z,132
2018-05-01T18:24:42.221Z,124
2018-05-01T18:25:42.794Z,112
2018-05-01T18:26:43.368Z,108
2018-05-01T18:27:43.947Z,100
2018-05-01T18:28:44.518Z,92
2018-05-01T18:29:45.094Z,88
2018-05-01T18:30:45.666Z,84
2018-05-01T18:31:46.236Z,80
2018-05-01T18:32:46.808Z,72
2018-05-01T18:33:47.385Z,68
2018-05-01T18:34:47.964Z,64
2018-05-01T18:35:48.537Z,64
2018-05-01T18:36:49.122Z,60
2018-05-01T18:37:49.682Z,56
2018-05-01T18:38:50.255Z,56
2018-05-01T18:39:50.829Z,56
2018-05-01T18:40:51.410Z,48
2018-05-01T18:41:51.984Z,48
2018-05-01T18:42:52.558Z,44
2018-05-01T18:43:53.139Z,44
2018-05-01T18:44:53.717Z,40
2018-05-01T18:45:54.285Z,40
2018-05-01T18:46:54.860Z,36
2018-05-01T18:47:55.430Z,32
2018-05-01T18:48:56.003Z,32
2018-05-01T18:49:56.574Z,28
2018-05-01T18:50:57.177Z,24
2018-05-01T18:51:57.722Z,24
2018-05-01T18:52:58.302Z,20
2018-05-01T18:53:58.868Z,20
2018-05-01T18:54:59.439Z,16
2018-05-01T18:56:00.011Z,16
2018-05-01T18:57:00.582Z,12
2018-05-01T18:58:01.155Z,12
2018-05-01T18:59:01.725Z,12
2018-05-01T19:00:02.298Z,12
2018-05-01T19:01:02.881Z,12
2018-05-01T19:02:03.455Z,8
2018-05-01T19:03:04.034Z,8
2018-05-01T19:04:04.606Z,8
2018-05-01T19:05:05.176Z,8
2018-05-01T19:06:05.751Z,4
2018-05-01T19:07:06.329Z,4
2018-05-01T19:08:06.909Z,4
2018-05-01T19:09:07.481Z,4
2018-05-01T19:10:08.052Z,4
2018-05-01T19:11:08.620Z,4
2018-05-01T19:12:09.191Z,4
2018-05-01T19:13:09.762Z,4
2018-05-01T19:14:10.333Z,4
2018-05-01T19:15:10.902Z,0
2018-05-01T19:16:11.481Z,4
2018-05-01T19:17:12.053Z,0
2018-05-01T19:18:12.621Z,0
2018-05-01T19:19:13.189Z,0
2018-05-01T19:20:13.760Z,4
2018-05-01T19:21:14.328Z,0
2018-05-01T19:22:14.899Z,0
2018-05-01T19:23:15.467Z,0
2018-05-01T19:24:16.037Z,0
2018-05-01T19:25:16.606Z,0
2018-05-01T19:26:17.177Z,0
2018-05-01T19:27:17.747Z,0
2018-05-01T19:28:18.317Z,0
2018-05-01T19:29:18.886Z,0
2018-05-01T19:30:19.454Z,0
2018-05-01T19:31:20.024Z,0
2018-05-01T19:32:20.594Z,0
2018-05-01T19:33:21.163Z,0
2018-05-01T19:34:21.743Z,0
2018-05-01T19:35:22.308Z,0
2018-05-01T19:36:22.881Z,0
2018-05-01T19:37:23.458Z,0
2018-05-01T19:38:24.026Z,0
2018-05-01T19:39:24.594Z,0
2018-05-01T19:40:25.163Z,0
2018-05-01T19:41:25.732Z,0
2018-05-01T19:42:26.299Z,0
2018-05-01T19:43:26.869Z,0
2018-05-01T19:44:27.439Z,0
2018-05-01T19:45:28.007Z,0
2018-05-01T19:46:28.574Z,0
2018-05-01T19:47:29.147Z,0
2018-05-01T19:48:29.725Z,0
2018-05-01T19:49:30.295Z,0
2018-05-01T19:50:30.865Z,0
2018-05-01T19:51:31.433Z,0
2018-05-01T19:52:32.004Z,0
2018-05-01T19:53:32.573Z,0
2018-05-01T19:54:33.142Z,0
2018-05-01T19:55:33.709Z,0
2018-05-01T19:56:34.312Z,0
2018-05-01T19:57:34.848Z,0
2018-05-01T19:58:35.417Z,0
2018-05-01T19:59:35.984Z,0
2018-05-01T20:00:36.566Z,0
2018-05-01T20:01:37.137Z,0
2018-05-01T20:02:37.789Z,0
2018-05-01T20:03:38.302Z,0
2018-05-01T20:04:38.865Z,0
2018-05-01T20:05:39.433Z,0
2018-05-01T20:06:40.014Z,0
2018-05-01T20:07:40.582Z,0
2018-05-01T20:08:41.149Z,0
2018-05-01T20:09:41.718Z,0
2018-05-01T20:10:42.296Z,0
2018-05-01T20:11:42.874Z,0
2018-05-01T20:12:43.441Z,0
2018-05-01T20:13:44.013Z,0
2018-05-01T20:14:44.576Z,0
2018-05-01T20:15:45.142Z,0
2018-05-01T20:16:45.711Z,0
2018-05-01T20:17:46.280Z,0
2018-05-01T20:18:46.865Z,0
2018-05-01T20:19:47.427Z,0
2018-05-01T20:20:47.999Z,0
2018-05-01T20:21:48.578Z,0
2018-05-01T20:22:49.142Z,0
2018-05-01T20:23:49.708Z,0
2018-05-01T20:24:50.278Z,0
2018-05-01T20:25:50.845Z,0
2018-05-01T20:26:51.414Z,0
2018-05-01T20:27:51.981Z,0
2018-05-01T20:28:52.550Z,0
2018-05-01T20:29:53.117Z,0
2018-05-01T20:30:53.685Z,0
2018-05-01T20:31:54.253Z,0
2018-05-01T20:32:54.823Z,0
2018-05-01T20:33:55.390Z,0
2018-05-01T20:34:55.967Z,0
2018-05-01T20:35:56.538Z,0
2018-05-01T20:36:57.106Z,0
2018-05-01T20:37:57.692Z,0
2018-05-01T20:38:58.265Z,0
2018-05-01T20:39:58.831Z,0
2018-05-01T20:40:59.405Z,0
2018-05-01T20:41:59.969Z,0
2018-05-01T20:43:00.539Z,0
2018-05-01T20:44:01.106Z,0
2018-05-01T20:45:01.676Z,0
2018-05-01T20:46:02.242Z,0
2018-05-01T20:47:02.811Z,0
2018-05-01T20:48:03.382Z,0
2018-05-01T20:49:03.947Z,0
2018-05-01T20:50:04.514Z,0
2018-05-01T20:51:05.082Z,0
2018-05-01T20:52:05.648Z,0
2018-05-01T20:53:06.216Z,0
2018-05-01T20:54:06.781Z,0
2018-05-01T20:55:07.350Z,0
2018-05-01T20:56:07.918Z,0
2018-05-01T20:57:08.491Z,0
2018-05-01T20:58:09.061Z,0
2018-05-01T20:59:09.627Z,0
2018-05-01T21:00:10.195Z,0
2018-05-01T21:01:10.764Z,0
2018-05-01T21:02:11.329Z,0
2018-05-01T21:03:11.897Z,0
2018-05-01T21:04:12.463Z,0
2018-05-01T21:05:13.030Z,0
2018-05-01T21:06:13.596Z,0
2018-05-01T21:07:14.163Z,0
2018-05-01T21:08:14.730Z,0
2018-05-01T21:09:15.298Z,0
2018-05-01T21:10:15.864Z,0
2018-05-01T21:11:16.432Z,0
2018-05-01T21:12:17.002Z,0
2018-05-01T21:13:17.566Z,0
2018-05-01T21:14:18.132Z,0
2018-05-01T21:15:18.702Z,0
2018-05-01T21:16:19.266Z,0
2018-05-01T21:17:19.835Z,0
2018-05-01T21:18:20.402Z,0
2018-05-01T21:19:20.969Z,0
2018-05-01T21:20:21.536Z,0
2018-05-01T21:21:22.103Z,0
2018-05-01T21:22:22.668Z,0
2018-05-01T21:23:23.237Z,0
2018-05-01T21:24:23.805Z,0
2018-05-01T21:25:24.369Z,0
2018-05-01T21:26:24.944Z,0
2018-05-01T21:27:25.511Z,0
2018-05-01T21:28:26.078Z,0
2018-05-01T21:29:26.644Z,0
2018-05-01T21:30:27.223Z,0
2018-05-01T21:31:27.791Z,0
2018-05-01T21:32:28.367Z,0
2018-05-01T21:33:28.933Z,0
2018-05-01T21:34:29.506Z,0
2018-05-01T21:35:30.065Z,0
2018-05-01T21:36:30.632Z,0
2018-05-01T21:37:31.197Z,0
2018-05-01T21:38:31.765Z,0
2018-05-01T21:39:32.331Z,0
2018-05-01T21:40:32.899Z,0
2018-05-01T21:41:33.466Z,0
2018-05-01T21:42:34.086Z,0
2018-05-01T21:43:34.597Z,0
2018-05-01T21:44:35.166Z,0
2018-05-01T21:45:35.743Z,0
2018-05-01T21:46:36.311Z,0
2018-05-01T21:47:36.880Z,0
2018-05-01T21:48:37.447Z,0
2018-05-01T21:49:38.017Z,0
2018-05-01T21:50:38.582Z,0
2018-05-01T21:51:39.151Z,0
2018-05-01T21:52:39.718Z,0
2018-05-01T21:53:40.286Z,0
2018-05-01T21:54:40.852Z,0
2018-05-01T21:55:41.581Z,0
2018-05-01T21:56:41.996Z,0
2018-05-01T21:57:42.562Z,0
2018-05-01T21:58:43.128Z,0
2018-05-01T21:59:43.695Z,0
2018-05-01T22:00:44.261Z,0
2018-05-01T22:01:44.889Z,0
2018-05-01T22:02:45.396Z,0
2018-05-01T22:03:45.966Z,0
2018-05-01T22:04:46.538Z,0
2018-05-01T22:05:47.104Z,0
2018-05-01T22:06:47.673Z,0
2018-05-01T22:07:48.239Z,0
2018-05-01T22:08:48.807Z,0
2018-05-01T22:09:49.373Z,0
2018-05-01T22:10:49.942Z,0
2018-05-01T22:11:50.510Z,0
2018-05-01T22:12:51.076Z,0
2018-05-01T22:13:51.641Z,0
2018-05-01T22:14:52.209Z,0
2018-05-01T22:15:52.789Z,0
2018-05-01T22:16:53.351Z,0
2018-05-01T22:17:53.927Z,0
2018-05-01T22:18:54.504Z,0
2018-05-01T22:19:55.070Z,0
2018-05-01T22:20:55.637Z,0
2018-05-01T22:21:56.203Z,0
2018-05-01T22:22:56.770Z,0
2018-05-01T22:23:57.337Z,0
2018-05-01T22:24:57.912Z,0
2018-05-01T22:25:58.489Z,0
2018-05-01T22:26:59.058Z,0
2018-05-01T22:27:59.624Z,0
2018-05-01T22:29:00.199Z,0
2018-05-01T22:30:00.767Z,0
2018-05-01T22:31:01.334Z,0
2018-05-01T22:32:01.902Z,0